Helliar — 2EPP5 — position and weather

sailwx.info

Track history (hours):
 
Tides and Currents Weather Stations Pressure Air Temp Water Temp Dewpoint Dewpoint Depression Visibility Wind Speed Wind Dir Waves Ship Positions

Helliar

Last reported at 2016-Aug-28 20:33 UTC. Time now 2016-Aug-28 20:39 UTC.
Position N 58°37' W 002°24'.

Length 122 m; draft 5.5 m.

Type: Cargo ship. MMSI: 235087119.

Date/timePositionNaut miles runAvg speedWind from/ knotsBaromVisibWave heightAir tempDewpointWater temp
2016-Aug-28 20:33N 58°37' W 002°24'1913.7
2016-Aug-28 19:08N 58°19' W 002°12'7012.6
2016-Aug-28 13:33N 57°09' W 002°05'0 0.0
2016-Aug-28 12:32N 57°09' W 002°05'0 0.0
2016-Aug-28 11:32N 57°09' W 002°05'0 0.0
2016-Aug-28 10:32N 57°09' W 002°05'0 0.0
2016-Aug-28 09:32N 57°09' W 002°05'39 9.8
2016-Aug-28 05:31N 57°47' W 001°51'5514.0
2016-Aug-28 01:33N 58°39' W 002°27'1413.5
2016-Aug-28 00:33N 58°52' W 002°35'1212.0
2016-Aug-27 23:33N 59°01' W 002°52'3 2.8
2016-Aug-27 22:34N 59°01' W 002°57'1312.6
2016-Aug-27 21:33N 59°01' W 002°32'3 0.2
2016-Aug-27 03:15N 59°04' W 002°28'913.7
2016-Aug-27 02:34N 59°00' W 002°45'7 6.9
2016-Aug-27 01:34N 58°60' W 002°58'1010.2
2016-Aug-27 00:33N 58°57' W 002°39'1714.7
2016-Aug-26 23:23N 58°41' W 002°27'6014.3
2016-Aug-26 19:12N 57°45' W 001°49'3710.2
2016-Aug-26 15:31N 57°09' W 002°05'0 0.0
2016-Aug-26 14:31N 57°09' W 002°05'0 0.0
2016-Aug-26 13:28N 57°09' W 002°05'0 0.0
2016-Aug-26 12:31N 57°09' W 002°05'0 0.0
2016-Aug-26 11:31N 57°09' W 002°05'0 0.0
2016-Aug-26 10:31N 57°09' W 002°05'0 0.0
2016-Aug-26 09:31N 57°09' W 002°05'0 0.0
2016-Aug-26 08:31N 57°09' W 002°05'0 0.0
2016-Aug-26 07:31N 57°09' W 002°05'26 8.8
2016-Aug-26 04:33N 57°30' W 001°38'97 3.8
2016-Aug-25 03:10N 59°04' W 002°28'812.8
2016-Aug-25 02:34N 59°00' W 002°42'9 8.6
2016-Aug-25 01:33N 58°60' W 002°58'2 2.4
2016-Aug-25 00:34N 59°01' W 002°54'1212.2
2016-Aug-24 23:32N 58°53' W 002°36'1514.8
2016-Aug-24 22:33N 58°39' W 002°26'7214.4
2016-Aug-24 17:33N 57°32' W 001°40'2612.1
2016-Aug-24 15:27N 57°09' W 002°03'2 1.8
2016-Aug-24 14:34N 57°09' W 002°05'0 0.0
2016-Aug-24 13:28N 57°09' W 002°05'0 0.0
2016-Aug-24 12:31N 57°09' W 002°05'0 0.0
2016-Aug-24 11:33N 57°09' W 002°05'0 0.0
2016-Aug-24 10:30N 57°09' W 002°05'0 0.0
2016-Aug-24 09:34N 57°09' W 002°05'0 0.0
2016-Aug-24 08:31N 57°09' W 002°05'0 0.0
2016-Aug-24 07:33N 57°09' W 002°05'0 0.0
2016-Aug-24 06:31N 57°09' W 002°05'0 0.0
2016-Aug-24 04:31N 57°09' W 002°05'0 0.0
2016-Aug-24 03:34N 57°09' W 002°05'0 0.0
2016-Aug-24 02:34N 57°09' W 002°05'0 0.0
2016-Aug-24 01:33N 57°09' W 002°05'0 0.0
2016-Aug-24 00:33N 57°09' W 002°05'0 0.0
2016-Aug-23 23:31N 57°09' W 002°05'0 0.0
2016-Aug-23 22:33N 57°09' W 002°05'0 0.0
2016-Aug-23 21:34N 57°09' W 002°05'0 0.0
2016-Aug-23 20:34N 57°09' W 002°05'0 0.0
2016-Aug-23 19:33N 57°09' W 002°05'0 0.0
2016-Aug-23 18:33N 57°09' W 002°05'0 0.0
2016-Aug-23 17:33N 57°09' W 002°05'0 0.2
2016-Aug-23 16:33N 57°09' W 002°05'0 0.0
2016-Aug-23 15:33N 57°09' W 002°05'0 0.0
2016-Aug-23 14:30N 57°09' W 002°05'0 0.0
2016-Aug-23 12:30N 57°09' W 002°05'0 0.0
2016-Aug-23 11:33N 57°09' W 002°05'0 0.0
2016-Aug-23 10:33N 57°09' W 002°05'0 0.0
2016-Aug-23 09:30N 57°09' W 002°05'0 0.0
2016-Aug-23 08:30N 57°09' W 002°05'0 0.0
2016-Aug-23 07:33N 57°09' W 002°05'0 0.2
2016-Aug-23 06:34N 57°09' W 002°05'2412.1
2016-Aug-23 04:34N 57°29' W 001°40'  
2016-Aug-20 17:29N 57°33' W 001°38'2811.7
2016-Aug-20 15:07N 57°08' W 002°04'0 0.2
2016-Aug-20 13:17N 57°09' W 002°05'0 0.0
2016-Aug-20 08:33N 57°09' W 002°05'18 8.3
2016-Aug-20 06:25N 57°23' W 001°46'1011.6
2016-Aug-20 05:33N 57°32' W 001°38'  
Track history (hours):
 
Tides and Currents Weather Stations Pressure Air Temp Water Temp Dewpoint Dewpoint Depression Visibility Wind Speed Wind Dir Waves Ship Positions

Helliar

Last reported at 2016-Aug-28 20:33 UTC. Time now 2016-Aug-28 20:39 UTC.
Position N 58°37' W 002°24'.

Length 122 m; draft 5.5 m.

Type: Cargo ship. MMSI: 235087119.

Date/timePositionNaut miles runAvg speedWind from/ knotsBaromVisibWave heightAir tempDewpointWater temp
2016-Aug-28 20:33N 58°37' W 002°24'1913.7
2016-Aug-28 19:08N 58°19' W 002°12'7012.6
2016-Aug-28 13:33N 57°09' W 002°05'0 0.0
2016-Aug-28 12:32N 57°09' W 002°05'0 0.0
2016-Aug-28 11:32N 57°09' W 002°05'0 0.0
2016-Aug-28 10:32N 57°09' W 002°05'0 0.0
2016-Aug-28 09:32N 57°09' W 002°05'39 9.8
2016-Aug-28 05:31N 57°47' W 001°51'5514.0
2016-Aug-28 01:33N 58°39' W 002°27'1413.5
2016-Aug-28 00:33N 58°52' W 002°35'1212.0
2016-Aug-27 23:33N 59°01' W 002°52'3 2.8
2016-Aug-27 22:34N 59°01' W 002°57'1312.6
2016-Aug-27 21:33N 59°01' W 002°32'3 0.2
2016-Aug-27 03:15N 59°04' W 002°28'913.7
2016-Aug-27 02:34N 59°00' W 002°45'7 6.9
2016-Aug-27 01:34N 58°60' W 002°58'1010.2
2016-Aug-27 00:33N 58°57' W 002°39'1714.7
2016-Aug-26 23:23N 58°41' W 002°27'6014.3
2016-Aug-26 19:12N 57°45' W 001°49'3710.2
2016-Aug-26 15:31N 57°09' W 002°05'0 0.0
2016-Aug-26 14:31N 57°09' W 002°05'0 0.0
2016-Aug-26 13:28N 57°09' W 002°05'0 0.0
2016-Aug-26 12:31N 57°09' W 002°05'0 0.0
2016-Aug-26 11:31N 57°09' W 002°05'0 0.0
2016-Aug-26 10:31N 57°09' W 002°05'0 0.0
2016-Aug-26 09:31N 57°09' W 002°05'0 0.0
2016-Aug-26 08:31N 57°09' W 002°05'0 0.0
2016-Aug-26 07:31N 57°09' W 002°05'26 8.8
2016-Aug-26 04:33N 57°30' W 001°38'97 3.8
2016-Aug-25 03:10N 59°04' W 002°28'812.8
2016-Aug-25 02:34N 59°00' W 002°42'9 8.6
2016-Aug-25 01:33N 58°60' W 002°58'2 2.4
2016-Aug-25 00:34N 59°01' W 002°54'1212.2
2016-Aug-24 23:32N 58°53' W 002°36'1514.8
2016-Aug-24 22:33N 58°39' W 002°26'7214.4
2016-Aug-24 17:33N 57°32' W 001°40'2612.1
2016-Aug-24 15:27N 57°09' W 002°03'2 1.8
2016-Aug-24 14:34N 57°09' W 002°05'0 0.0
2016-Aug-24 13:28N 57°09' W 002°05'0 0.0
2016-Aug-24 12:31N 57°09' W 002°05'0 0.0
2016-Aug-24 11:33N 57°09' W 002°05'0 0.0
2016-Aug-24 10:30N 57°09' W 002°05'0 0.0
2016-Aug-24 09:34N 57°09' W 002°05'0 0.0
2016-Aug-24 08:31N 57°09' W 002°05'0 0.0
2016-Aug-24 07:33N 57°09' W 002°05'0 0.0
2016-Aug-24 06:31N 57°09' W 002°05'0 0.0
2016-Aug-24 04:31N 57°09' W 002°05'0 0.0
2016-Aug-24 03:34N 57°09' W 002°05'0 0.0
2016-Aug-24 02:34N 57°09' W 002°05'0 0.0
2016-Aug-24 01:33N 57°09' W 002°05'0 0.0
2016-Aug-24 00:33N 57°09' W 002°05'0 0.0
2016-Aug-23 23:31N 57°09' W 002°05'0 0.0
2016-Aug-23 22:33N 57°09' W 002°05'0 0.0
2016-Aug-23 21:34N 57°09' W 002°05'0 0.0
2016-Aug-23 20:34N 57°09' W 002°05'0 0.0
2016-Aug-23 19:33N 57°09' W 002°05'0 0.0
2016-Aug-23 18:33N 57°09' W 002°05'0 0.0
2016-Aug-23 17:33N 57°09' W 002°05'0 0.2
2016-Aug-23 16:33N 57°09' W 002°05'0 0.0
2016-Aug-23 15:33N 57°09' W 002°05'0 0.0
2016-Aug-23 14:30N 57°09' W 002°05'0 0.0
2016-Aug-23 12:30N 57°09' W 002°05'0 0.0
2016-Aug-23 11:33N 57°09' W 002°05'0 0.0
2016-Aug-23 10:33N 57°09' W 002°05'0 0.0
2016-Aug-23 09:30N 57°09' W 002°05'0 0.0
2016-Aug-23 08:30N 57°09' W 002°05'0 0.0
2016-Aug-23 07:33N 57°09' W 002°05'0 0.2
2016-Aug-23 06:34N 57°09' W 002°05'2412.1
2016-Aug-23 04:34N 57°29' W 001°40'  
2016-Aug-20 17:29N 57°33' W 001°38'2811.7
2016-Aug-20 15:07N 57°08' W 002°04'0 0.2
2016-Aug-20 13:17N 57°09' W 002°05'0 0.0
2016-Aug-20 08:33N 57°09' W 002°05'18 8.3
2016-Aug-20 06:25N 57°23' W 001°46'1011.6
2016-Aug-20 05:33N 57°32' W 001°38'  

Dump ship's entire track history